Time;durP1;ratioP1;P1;durP2;ratioP2;P2;SDS_P1;SDS_P2;PMS_P1;PMS_P2;Temp;Humidity;BMP_temperature;BMP_pressure;BME280_temperature;BME280_humidity;BME280_pressure;Samples;Min_cycle;Max_cycle;Signal;HPM_P1;HPM_P2
2022/03/05 00:00:08;;;;;;;56.00;34.20;;;;;;;0.26;100.00;99408.13;2084080;28;20192;-77
2022/03/05 00:01:17;;;;;;;59.35;34.25;;;;;;;0.21;100.00;99416.66;2085696;28;20195;-77
2022/03/05 00:02:18;;;;;;;51.05;33.88;;;;;;;0.16;100.00;99413.09;2084795;28;20199;-77
2022/03/05 00:03:24;;;;;;;54.63;33.55;;;;;;;0.39;100.00;99410.59;2076266;28;20675;-77
2022/03/05 00:04:25;;;;;;;57.63;33.50;;;;;;;0.31;100.00;99410.91;2075875;28;20637;-77
2022/03/05 00:05:28;;;;;;;54.05;33.60;;;;;;;0.23;100.00;99408.56;2083687;28;20191;-77
2022/03/05 00:06:34;;;;;;;57.13;34.17;;;;;;;0.22;100.00;99406.97;2084047;28;20230;-77
2022/03/05 00:07:36;;;;;;;57.78;33.03;;;;;;;0.25;100.00;99403.91;2084333;28;20203;-77
2022/03/05 00:08:38;;;;;;;55.25;33.53;;;;;;;0.36;100.00;99408.44;2084448;28;20274;-77
2022/03/05 00:09:40;;;;;;;54.45;33.55;;;;;;;0.52;100.00;99407.81;2083331;28;20203;-77
2022/03/05 00:10:44;;;;;;;53.25;32.83;;;;;;;0.46;100.00;99400.81;2083030;28;20195;-77
2022/03/05 00:11:46;;;;;;;53.35;34.17;;;;;;;0.46;100.00;99406.06;2076000;28;20771;-77
2022/03/05 00:12:50;;;;;;;61.13;35.42;;;;;;;0.43;100.00;99406.50;2083451;28;20191;-77
2022/03/05 00:13:51;;;;;;;59.83;34.50;;;;;;;0.51;100.00;99408.81;2084278;28;20222;-77
2022/03/05 00:14:54;;;;;;;56.92;33.65;;;;;;;0.48;100.00;99411.09;2083827;28;20202;-77
2022/03/05 00:15:58;;;;;;;59.50;36.13;;;;;;;0.37;100.00;99410.03;2084664;28;20192;-77
2022/03/05 00:17:00;;;;;;;55.95;35.35;;;;;;;0.26;100.00;99401.06;2083407;28;20199;-77
2022/03/05 00:18:02;;;;;;;55.75;33.55;;;;;;;0.36;100.00;99411.03;2076321;28;20264;-77
2022/03/05 00:19:06;;;;;;;55.55;34.25;;;;;;;0.34;100.00;99417.53;2084782;28;20237;-77
2022/03/05 00:20:09;;;;;;;57.07;33.40;;;;;;;0.33;100.00;99413.28;2084244;28;20211;-77
2022/03/05 00:21:10;;;;;;;48.05;33.10;;;;;;;0.31;100.00;99417.97;2082298;28;20218;-74
2022/03/05 00:22:11;;;;;;;56.80;34.55;;;;;;;0.25;100.00;99409.13;2081581;28;20200;-74
2022/03/05 00:23:17;;;;;;;53.87;34.93;;;;;;;0.33;100.00;99416.72;2081497;28;20199;-74
2022/03/05 00:24:23;;;;;;;54.00;33.03;;;;;;;0.47;100.00;99412.91;2084627;28;20203;-77
2022/03/05 00:25:26;;;;;;;54.10;35.05;;;;;;;0.38;100.00;99414.25;2085244;28;20233;-77
2022/03/05 00:26:28;;;;;;;58.55;35.33;;;;;;;0.33;100.00;99411.47;2085261;28;20195;-77
2022/03/05 00:27:29;;;;;;;51.10;32.00;;;;;;;0.30;100.00;99411.13;2084510;28;20271;-77
2022/03/05 00:28:34;;;;;;;62.22;35.28;;;;;;;0.34;100.00;99418.31;2084424;28;20238;-77
2022/03/05 00:29:37;;;;;;;58.33;36.10;;;;;;;0.25;100.00;99406.50;2084106;28;20176;-77
2022/03/05 00:30:41;;;;;;;54.70;34.88;;;;;;;0.25;100.00;99415.19;2084020;28;20203;-77
2022/03/05 00:31:45;;;;;;;53.78;34.53;;;;;;;0.25;100.00;99415.19;2076057;28;20204;-77
2022/03/05 00:32:48;;;;;;;60.05;35.30;;;;;;;0.21;100.00;99408.00;2075410;28;20235;-77
2022/03/05 00:33:50;;;;;;;58.28;34.28;;;;;;;0.19;100.00;99420.53;2081820;28;20261;-75
2022/03/05 00:34:55;;;;;;;55.17;35.42;;;;;;;0.17;100.00;99407.63;2082440;28;20654;-76
2022/03/05 00:35:56;;;;;;;56.40;35.42;;;;;;;0.13;100.00;99410.91;2081433;28;20237;-75
2022/03/05 00:36:58;;;;;;;60.42;35.30;;;;;;;0.13;100.00;99413.53;2082173;28;20188;-75
2022/03/05 00:37:59;;;;;;;62.20;35.13;;;;;;;0.08;100.00;99411.56;2081881;28;20254;-76
2022/03/05 00:39:01;;;;;;;59.15;35.25;;;;;;;0.09;100.00;99412.34;2082115;28;20220;-75
2022/03/05 00:40:02;;;;;;;58.20;36.08;;;;;;;0.07;100.00;99415.19;2082253;28;20634;-76
2022/03/05 00:41:06;;;;;;;54.33;35.03;;;;;;;0.05;100.00;99419.06;2082834;28;20176;-75
2022/03/05 00:42:07;;;;;;;60.42;36.33;;;;;;;0.03;100.00;99414.03;2081796;28;20222;-75
2022/03/05 00:43:13;;;;;;;57.78;35.67;;;;;;;0.01;100.00;99418.72;2081805;28;20662;-75
2022/03/05 00:44:15;;;;;;;60.88;34.83;;;;;;;0.01;100.00;99412.66;2082180;28;20327;-76
2022/03/05 00:45:18;;;;;;;53.60;35.03;;;;;;;0.00;100.00;99409.25;2073927;28;20251;-75
2022/03/05 00:46:23;;;;;;;58.22;35.42;;;;;;;-0.03;100.00;99405.22;2074253;28;20587;-75
2022/03/05 00:47:26;;;;;;;60.90;34.80;;;;;;;-0.02;100.00;99411.25;2081960;28;20721;-75
2022/03/05 00:48:30;;;;;;;58.75;34.65;;;;;;;-0.02;100.00;99413.88;2082691;28;20628;-75
2022/03/05 00:49:31;;;;;;;57.67;35.92;;;;;;;0.06;100.00;99412.78;2083635;28;20573;-76
2022/03/05 00:50:35;;;;;;;58.17;35.53;;;;;;;0.03;100.00;99408.81;2091662;28;20203;-75
2022/03/05 00:51:38;;;;;;;63.13;35.03;;;;;;;0.03;100.00;99410.63;2091535;28;20218;-75
2022/03/05 00:52:41;;;;;;;57.00;34.25;;;;;;;-0.01;100.00;99400.56;2084280;28;20188;-75
2022/03/05 00:53:45;;;;;;;59.33;35.80;;;;;;;0.02;100.00;99417.69;2084353;28;20278;-75
2022/03/05 00:54:47;;;;;;;58.65;35.22;;;;;;;0.04;100.00;99418.28;2083681;28;20211;-75
2022/03/05 00:55:50;;;;;;;63.13;35.25;;;;;;;0.04;100.00;99413.03;2075450;28;20208;-76
2022/03/05 00:56:53;;;;;;;56.13;34.78;;;;;;;0.30;100.00;99401.44;2083728;28;20697;-75
2022/03/05 00:57:57;;;;;;;57.10;34.35;;;;;;;0.27;100.00;99407.94;2083873;28;20218;-76
2022/03/05 00:59:01;;;;;;;57.45;34.97;;;;;;;0.26;100.00;99406.31;2084097;28;20532;-75
2022/03/05 01:00:04;;;;;;;52.53;33.80;;;;;;;0.20;100.00;99404.56;2084201;28;20420;-76
2022/03/05 01:01:07;;;;;;;58.75;35.08;;;;;;;0.16;100.00;99410.47;2083387;28;20200;-75
2022/03/05 01:02:13;;;;;;;56.53;35.35;;;;;;;0.14;100.00;99402.81;2083692;28;20200;-76
2022/03/05 01:03:17;;;;;;;56.83;34.90;;;;;;;0.09;100.00;99407.09;2084613;28;20266;-75
2022/03/05 01:04:19;;;;;;;62.40;34.67;;;;;;;0.09;100.00;99405.31;2084174;28;20658;-76
2022/03/05 01:05:21;;;;;;;54.25;35.55;;;;;;;0.07;100.00;99407.31;2084750;28;20244;-77
2022/03/05 01:06:26;;;;;;;55.10;35.08;;;;;;;0.15;100.00;99408.84;2083446;28;20273;-75
2022/03/05 01:07:31;;;;;;;59.85;35.45;;;;;;;0.14;100.00;99413.31;2084170;28;20218;-75
2022/03/05 01:08:34;;;;;;;53.25;34.83;;;;;;;0.18;100.00;99408.44;2084546;28;20286;-75
2022/03/05 01:09:38;;;;;;;56.70;35.33;;;;;;;0.16;100.00;99413.88;2076250;28;20204;-75
2022/03/05 01:10:40;;;;;;;57.20;35.00;;;;;;;0.12;100.00;99404.88;2084093;28;20192;-76
2022/03/05 01:11:42;;;;;;;53.92;34.42;;;;;;;0.12;100.00;99409.31;2084803;28;20207;-75
2022/03/05 01:12:46;;;;;;;54.35;33.78;;;;;;;0.07;100.00;99401.28;2084265;28;20582;-75
2022/03/05 01:13:49;;;;;;;60.75;36.40;;;;;;;0.17;100.00;99412.06;2075487;28;20634;-75
2022/03/05 01:14:54;;;;;;;58.78;34.55;;;;;;;0.15;100.00;99409.66;2076603;28;20674;-76
2022/03/05 01:15:59;;;;;;;56.90;34.38;;;;;;;0.15;100.00;99406.25;2084387;28;20180;-76
2022/03/05 01:17:06;;;;;;;57.97;35.47;;;;;;;0.14;100.00;99402.81;2084855;28;20222;-76
2022/03/05 01:18:10;;;;;;;54.67;33.80;;;;;;;0.22;100.00;99406.97;2084214;28;20728;-75
2022/03/05 01:19:12;;;;;;;56.70;36.10;;;;;;;0.19;100.00;99402.97;2084165;28;20195;-75
2022/03/05 01:20:18;;;;;;;60.35;35.70;;;;;;;0.13;100.00;99410.91;2085137;28;20526;-76
2022/03/05 01:21:23;;;;;;;59.85;34.28;;;;;;;0.08;100.00;99397.63;2084491;28;20223;-76
2022/03/05 01:22:25;;;;;;;53.78;35.00;;;;;;;0.07;100.00;99409.94;2084173;28;20588;-76
2022/03/05 01:23:30;;;;;;;60.97;35.17;;;;;;;0.06;100.00;99403.09;2084514;28;20203;-76
2022/03/05 01:24:31;;;;;;;61.75;36.08;;;;;;;0.07;100.00;99403.91;2085122;28;20195;-76
2022/03/05 01:25:33;;;;;;;55.58;34.80;;;;;;;0.16;100.00;99410.47;2085196;28;20203;-76
2022/03/05 01:26:34;;;;;;;56.35;35.10;;;;;;;0.22;100.00;99399.91;2084964;28;20294;-76
2022/03/05 01:27:39;;;;;;;55.90;35.08;;;;;;;0.20;100.00;99401.16;2084968;28;20218;-76
2022/03/05 01:28:44;;;;;;;62.50;36.25;;;;;;;0.12;100.00;99394.38;2084620;28;20206;-76
2022/03/05 01:29:49;;;;;;;59.42;34.67;;;;;;;0.06;100.00;99395.25;2076983;28;20283;-76
2022/03/05 01:30:56;;;;;;;59.60;35.63;;;;;;;0.09;100.00;99402.69;2077808;28;20303;-76
2022/03/05 01:32:03;;;;;;;65.10;37.15;;;;;;;0.13;100.00;99406.47;2077620;28;20243;-76
2022/03/05 01:33:08;;;;;;;62.72;36.90;;;;;;;0.26;100.00;99402.88;2076808;28;20199;-76
2022/03/05 01:34:14;;;;;;;55.80;35.90;;;;;;;0.26;100.00;99400.25;2084442;28;20275;-76
2022/03/05 01:35:22;;;;;;;62.22;35.85;;;;;;;0.29;100.00;99402.44;2085469;28;20196;-76
2022/03/05 01:36:25;;;;;;;66.57;36.00;;;;;;;0.30;100.00;99393.56;2084562;28;20677;-76
2022/03/05 01:37:28;;;;;;;59.80;36.90;;;;;;;0.40;100.00;99398.28;2085201;28;20211;-76
2022/03/05 01:38:31;;;;;;;62.22;37.60;;;;;;;0.28;100.00;99399.03;2084857;28;20208;-76
2022/03/05 01:39:34;;;;;;;63.22;37.20;;;;;;;0.26;100.00;99395.00;2084532;28;20246;-76
2022/03/05 01:40:35;;;;;;;61.90;36.17;;;;;;;0.23;100.00;99398.06;2084272;28;20228;-76
2022/03/05 01:41:39;;;;;;;65.97;37.27;;;;;;;0.18;100.00;99397.94;2084239;28;20198;-76
2022/03/05 01:42:45;;;;;;;61.45;36.13;;;;;;;0.21;100.00;99398.28;2077648;28;20196;-76
2022/03/05 01:43:54;;;;;;;66.07;38.55;;;;;;;0.15;100.00;99395.75;2084291;28;20234;-76
2022/03/05 01:45:01;;;;;;;60.40;36.85;;;;;;;0.13;100.00;99403.84;2085018;28;20211;-76
2022/03/05 01:46:02;;;;;;;62.38;37.90;;;;;;;0.10;100.00;99406.91;2076446;28;20197;-77
2022/03/05 01:47:08;;;;;;;63.83;37.58;;;;;;;0.05;100.00;99401.50;2075888;28;20196;-77
2022/03/05 01:48:10;;;;;;;63.50;36.88;;;;;;;0.02;100.00;99403.78;2077443;28;20256;-76
2022/03/05 01:49:15;;;;;;;60.20;36.63;;;;;;;-0.02;100.00;99393.69;2084049;28;20560;-76
2022/03/05 01:50:21;;;;;;;57.72;36.70;;;;;;;0.03;100.00;99400.13;2084772;28;20667;-76
2022/03/05 01:51:25;;;;;;;61.35;36.20;;;;;;;0.02;100.00;99401.94;2092118;28;20223;-77
2022/03/05 01:52:28;;;;;;;66.40;39.40;;;;;;;0.06;100.00;99400.47;2092798;28;20187;-76
2022/03/05 01:53:31;;;;;;;63.60;36.90;;;;;;;0.14;100.00;99391.53;2084662;28;20195;-76
2022/03/05 01:54:33;;;;;;;56.90;35.00;;;;;;;0.13;100.00;99400.41;2084534;28;20662;-76
2022/03/05 01:55:33;;;;;;;61.45;37.00;;;;;;;0.08;100.00;99403.69;2084686;28;20500;-76
2022/03/05 01:56:40;;;;;;;65.07;37.43;;;;;;;0.05;100.00;99398.88;2084793;28;20191;-77
2022/03/05 01:57:43;;;;;;;62.25;36.80;;;;;;;0.01;100.00;99396.94;2084500;28;20234;-76
2022/03/05 01:58:48;;;;;;;67.38;37.72;;;;;;;-0.03;100.00;99392.09;2085790;28;20644;-77
2022/03/05 01:59:51;;;;;;;60.65;36.20;;;;;;;0.02;100.00;99404.56;2084705;28;20670;-77
2022/03/05 02:00:54;;;;;;;65.65;36.35;;;;;;;0.09;100.00;99394.81;2085630;28;20286;-76
2022/03/05 02:01:58;;;;;;;62.75;37.08;;;;;;;0.22;100.00;99396.47;2077857;28;20196;-76
2022/03/05 02:03:03;;;;;;;56.70;35.58;;;;;;;0.26;100.00;99403.69;2085562;28;20556;-76
2022/03/05 02:04:05;;;;;;;66.03;36.92;;;;;;;0.25;100.00;99390.78;2086111;28;20666;-76
2022/03/05 02:05:12;;;;;;;59.20;35.85;;;;;;;0.18;100.00;99387.47;2086492;28;20199;-76
2022/03/05 02:06:16;;;;;;;58.05;35.75;;;;;;;0.33;100.00;99390.47;2084454;28;20310;-76
2022/03/05 02:07:18;;;;;;;67.90;37.92;;;;;;;0.31;100.00;99394.34;2085262;28;20762;-76
2022/03/05 02:08:20;;;;;;;60.60;36.72;;;;;;;0.25;100.00;99396.03;2084743;28;20195;-76
2022/03/05 02:09:23;;;;;;;58.30;35.22;;;;;;;0.16;100.00;99394.72;2085113;28;20208;-76
2022/03/05 02:10:24;;;;;;;59.90;36.65;;;;;;;0.11;100.00;99378.84;2084626;28;20203;-76
2022/03/05 02:11:28;;;;;;;71.90;37.23;;;;;;;0.08;100.00;99392.38;2085843;28;20290;-76
2022/03/05 02:12:33;;;;;;;59.47;36.00;;;;;;;0.14;100.00;99391.53;2078519;28;20471;-76
2022/03/05 02:13:36;;;;;;;57.80;35.33;;;;;;;0.12;100.00;99383.88;2084896;28;20262;-76
2022/03/05 02:14:38;;;;;;;62.15;36.13;;;;;;;0.17;100.00;99385.81;2086206;28;20191;-76
2022/03/05 02:15:41;;;;;;;58.77;36.27;;;;;;;0.13;100.00;99392.53;2085733;28;20199;-76
2022/03/05 02:16:44;;;;;;;57.60;35.80;;;;;;;0.17;100.00;99385.81;2085190;28;20446;-77
2022/03/05 02:17:45;;;;;;;59.28;36.78;;;;;;;0.15;100.00;99390.50;2084548;28;20706;-75
2022/03/05 02:18:49;;;;;;;60.20;37.00;;;;;;;0.13;100.00;99389.91;2083726;28;20234;-76
2022/03/05 02:19:51;;;;;;;60.95;37.25;;;;;;;0.19;100.00;99395.09;2084502;28;20235;-75
2022/03/05 02:20:56;;;;;;;65.82;37.63;;;;;;;0.27;100.00;99396.63;2083280;28;20223;-76
2022/03/05 02:22:01;;;;;;;59.67;35.92;;;;;;;0.20;100.00;99395.91;2084069;28;20172;-75
2022/03/05 02:23:05;;;;;;;59.63;36.45;;;;;;;0.15;100.00;99387.88;2084590;28;20198;-75
2022/03/05 02:24:07;;;;;;;61.65;36.80;;;;;;;0.07;100.00;99393.41;2083880;28;20196;-76
2022/03/05 02:25:10;;;;;;;65.25;36.72;;;;;;;0.08;100.00;99387.16;2076058;28;20758;-75
2022/03/05 02:26:12;;;;;;;59.92;36.30;;;;;;;0.01;100.00;99389.88;2084544;28;20192;-76
2022/03/05 02:27:18;;;;;;;58.85;36.33;;;;;;;0.05;100.00;99398.09;2084040;28;20209;-76
2022/03/05 02:28:20;;;;;;;58.13;35.58;;;;;;;0.06;100.00;99394.44;2084632;28;20658;-76
2022/03/05 02:29:25;;;;;;;59.42;37.85;;;;;;;0.02;100.00;99394.09;2084740;28;20219;-76
2022/03/05 02:30:27;;;;;;;54.83;35.65;;;;;;;0.10;100.00;99401.66;2085004;28;20223;-76
2022/03/05 02:31:30;;;;;;;63.97;37.50;;;;;;;0.05;100.00;99401.50;2084047;28;20237;-76
2022/03/05 02:32:33;;;;;;;63.70;37.42;;;;;;;0.05;100.00;99403.34;2084244;28;20195;-76
2022/03/05 02:33:37;;;;;;;63.30;36.58;;;;;;;0.04;100.00;99401.72;2084509;28;20223;-76
2022/03/05 02:34:38;;;;;;;61.75;37.88;;;;;;;0.06;100.00;99412.78;2084060;28;20199;-76
2022/03/05 02:35:44;;;;;;;64.13;35.28;;;;;;;0.12;100.00;99406.69;2084516;28;20200;-75
2022/03/05 02:36:47;;;;;;;60.35;35.97;;;;;;;0.10;100.00;99409.53;2083966;28;20223;-76
2022/03/05 02:37:51;;;;;;;60.55;35.10;;;;;;;0.07;100.00;99412.56;2085452;28;20188;-76
2022/03/05 02:38:53;;;;;;;60.80;35.80;;;;;;;0.12;100.00;99412.72;2085022;28;20214;-76
2022/03/05 02:39:55;;;;;;;61.38;35.47;;;;;;;0.15;100.00;99416.72;2083516;28;20191;-76
2022/03/05 02:40:56;;;;;;;57.25;36.10;;;;;;;0.14;100.00;99415.94;2085272;28;20176;-76
2022/03/05 02:42:01;;;;;;;59.78;34.42;;;;;;;0.18;100.00;99409.25;2085385;28;20685;-76
2022/03/05 02:43:03;;;;;;;55.83;35.10;;;;;;;0.22;100.00;99406.97;2084756;28;20282;-76
2022/03/05 02:44:06;;;;;;;53.95;34.92;;;;;;;0.22;100.00;99407.75;2084633;28;20210;-76
2022/03/05 02:45:09;;;;;;;58.67;35.78;;;;;;;0.15;100.00;99409.66;2092634;28;20219;-76
2022/03/05 02:46:13;;;;;;;53.97;35.40;;;;;;;0.11;100.00;99405.88;2083802;28;20208;-76
2022/03/05 02:47:14;;;;;;;61.80;36.20;;;;;;;0.09;100.00;99410.56;2083833;28;20199;-76
2022/03/05 02:48:21;;;;;;;55.53;34.03;;;;;;;0.34;100.00;99412.28;2083504;28;20231;-76
2022/03/05 02:49:24;;;;;;;58.42;35.72;;;;;;;0.48;100.00;99411.09;2083423;28;20199;-76
2022/03/05 02:50:28;;;;;;;52.47;33.20;;;;;;;0.45;100.00;99409.72;2084249;28;20556;-75
2022/03/05 02:51:29;;;;;;;59.72;34.75;;;;;;;0.47;100.00;99410.28;2083212;28;20215;-75
2022/03/05 02:52:33;;;;;;;56.35;35.00;;;;;;;0.37;100.00;99411.84;2075403;28;20212;-76
2022/03/05 02:53:34;;;;;;;56.28;35.42;;;;;;;0.26;100.00;99405.50;2083873;28;20219;-76
2022/03/05 02:54:39;;;;;;;55.13;34.60;;;;;;;0.18;100.00;99413.69;2076495;28;20200;-76
2022/03/05 02:55:43;;;;;;;58.60;35.20;;;;;;;0.14;100.00;99412.50;2075331;28;20303;-76
2022/03/05 02:56:46;;;;;;;53.55;34.90;;;;;;;0.08;100.00;99416.00;2076563;28;20255;-75
2022/03/05 02:57:47;;;;;;;62.13;36.22;;;;;;;0.04;100.00;99422.72;2084285;28;20694;-76
2022/03/05 02:58:50;;;;;;;61.65;36.88;;;;;;;-0.01;100.00;99424.16;2092468;28;20645;-76
2022/03/05 02:59:52;;;;;;;55.30;34.50;;;;;;;-0.04;100.00;99414.09;2083838;28;20253;-76
2022/03/05 03:00:58;;;;;;;57.70;34.38;;;;;;;0.07;100.00;99414.41;2084687;28;20296;-76
2022/03/05 03:01:59;;;;;;;55.17;34.13;;;;;;;0.08;100.00;99421.25;2091811;28;20194;-76
2022/03/05 03:03:03;;;;;;;56.75;34.58;;;;;;;0.26;100.00;99421.25;2085222;28;20200;-76
2022/03/05 03:04:05;;;;;;;54.90;34.25;;;;;;;0.26;100.00;99421.25;2084499;28;20207;-76
2022/03/05 03:05:07;;;;;;;55.53;36.17;;;;;;;0.19;100.00;99423.16;2084294;28;20274;-76
2022/03/05 03:06:11;;;;;;;52.00;34.22;;;;;;;0.14;100.00;99428.25;2084443;28;20245;-76
2022/03/05 03:07:14;;;;;;;56.30;34.25;;;;;;;0.08;100.00;99419.41;2084623;28;20196;-76
2022/03/05 03:08:21;;;;;;;57.38;36.42;;;;;;;0.08;100.00;99416.00;2075903;28;20196;-76
2022/03/05 03:09:23;;;;;;;60.75;35.85;;;;;;;0.06;100.00;99420.66;2076511;28;20689;-76
2022/03/05 03:10:28;;;;;;;60.60;36.25;;;;;;;0.02;100.00;99422.13;2083375;28;20631;-75
2022/03/05 03:11:31;;;;;;;52.30;34.83;;;;;;;-0.03;100.00;99420.94;2083457;28;20581;-75
2022/03/05 03:12:34;;;;;;;56.25;34.78;;;;;;;-0.03;100.00;99420.94;2084154;28;20223;-75
2022/03/05 03:13:37;;;;;;;51.70;33.65;;;;;;;-0.06;100.00;99421.41;2083780;28;20204;-76
2022/03/05 03:14:41;;;;;;;57.28;35.55;;;;;;;-0.06;100.00;99421.41;2084351;28;20187;-75
2022/03/05 03:15:45;;;;;;;57.83;34.72;;;;;;;-0.04;100.00;99421.97;2084301;28;20196;-76
2022/03/05 03:16:46;;;;;;;55.70;35.63;;;;;;;-0.05;100.00;99417.75;2083563;28;20252;-76
2022/03/05 03:17:53;;;;;;;61.78;35.63;;;;;;;0.07;100.00;99412.56;2083581;28;20230;-76
2022/03/05 03:18:55;;;;;;;55.05;35.42;;;;;;;0.21;100.00;99423.72;2083906;28;20278;-75
2022/03/05 03:19:58;;;;;;;53.13;33.53;;;;;;;0.21;100.00;99427.16;2091596;28;20186;-75
2022/03/05 03:20:59;;;;;;;52.53;33.97;;;;;;;0.24;100.00;99428.53;2082844;28;20203;-76
2022/03/05 03:22:03;;;;;;;52.58;32.60;;;;;;;0.29;100.00;99420.81;2075488;28;20224;-75
2022/03/05 03:23:09;;;;;;;51.25;33.42;;;;;;;0.21;100.00;99426.34;2075915;28;20659;-76
2022/03/05 03:24:14;;;;;;;55.72;34.60;;;;;;;0.10;100.00;99422.66;2075818;28;20196;-76
2022/03/05 03:25:18;;;;;;;59.50;36.42;;;;;;;0.06;100.00;99431.16;2083209;28;20187;-75
2022/03/05 03:26:22;;;;;;;55.97;34.85;;;;;;;0.11;100.00;99418.19;2083454;28;20203;-75
2022/03/05 03:27:24;;;;;;;55.83;34.97;;;;;;;0.23;100.00;99417.25;2083218;28;20212;-75
2022/03/05 03:28:25;;;;;;;56.28;34.00;;;;;;;0.26;100.00;99416.00;2083017;28;20666;-75
2022/03/05 03:29:28;;;;;;;54.03;35.00;;;;;;;0.15;100.00;99427.22;2075464;28;20514;-75
2022/03/05 03:30:32;;;;;;;55.45;34.55;;;;;;;0.04;100.00;99423.50;2075549;28;20247;-76
2022/03/05 03:31:36;;;;;;;62.05;34.70;;;;;;;-0.01;100.00;99421.53;2083563;28;20214;-75
2022/03/05 03:32:40;;;;;;;56.00;34.58;;;;;;;-0.02;100.00;99422.56;2075785;28;20239;-75
2022/03/05 03:33:42;;;;;;;55.88;34.58;;;;;;;0.06;100.00;99425.91;2075430;28;20292;-75
2022/03/05 03:34:43;;;;;;;58.13;35.65;;;;;;;0.01;100.00;99429.22;2083469;28;20250;-76
2022/03/05 03:35:46;;;;;;;52.75;34.35;;;;;;;-0.03;100.00;99430.66;2083337;28;20195;-75
2022/03/05 03:36:47;;;;;;;58.97;34.78;;;;;;;0.04;100.00;99427.97;2082742;28;20223;-76
2022/03/05 03:37:55;;;;;;;55.08;32.65;;;;;;;0.04;100.00;99430.59;2083967;28;20234;-75
2022/03/05 03:38:59;;;;;;;56.45;33.47;;;;;;;0.08;100.00;99432.53;2082895;28;20705;-76
2022/03/05 03:40:07;;;;;;;53.85;33.20;;;;;;;0.03;100.00;99427.16;2083444;28;20236;-76
2022/03/05 03:41:09;;;;;;;60.95;35.13;;;;;;;0.01;100.00;99423.16;2083559;28;20199;-75
2022/03/05 03:42:12;;;;;;;57.65;33.50;;;;;;;0.01;100.00;99425.78;2083666;28;20198;-76
2022/03/05 03:43:12;;;;;;;54.53;33.60;;;;;;;0.04;100.00;99422.72;2082920;28;20204;-75
2022/03/05 03:44:15;;;;;;;56.22;34.60;;;;;;;-0.01;100.00;99426.78;2075055;28;20211;-76
2022/03/05 03:45:18;;;;;;;54.83;33.88;;;;;;;-0.06;100.00;99429.25;2083078;28;20526;-76
2022/03/05 03:46:23;;;;;;;54.15;33.88;;;;;;;-0.08;100.00;99426.06;2083276;28;20195;-76
2022/03/05 03:47:25;;;;;;;53.85;33.88;;;;;;;-0.13;100.00;99423.28;2082976;28;20184;-76
2022/03/05 03:48:29;;;;;;;54.40;34.15;;;;;;;-0.07;100.00;99422.41;2082609;28;20203;-75
2022/03/05 03:49:30;;;;;;;59.38;34.85;;;;;;;-0.01;100.00;99432.03;2083371;28;20184;-75
2022/03/05 03:50:32;;;;;;;56.53;35.58;;;;;;;0.01;100.00;99426.59;2074793;28;20196;-76
2022/03/05 03:51:33;;;;;;;50.90;33.47;;;;;;;-0.07;100.00;99422.41;2076138;28;20705;-76
2022/03/05 03:52:39;;;;;;;55.80;33.87;;;;;;;-0.12;100.00;99427.50;2091829;28;20592;-76
2022/03/05 03:53:41;;;;;;;50.33;34.55;;;;;;;-0.08;100.00;99425.28;2083802;28;20279;-76
2022/03/05 03:54:47;;;;;;;59.78;35.88;;;;;;;-0.10;100.00;99433.31;2075917;28;20635;-76
2022/03/05 03:55:49;;;;;;;53.85;34.60;;;;;;;-0.09;100.00;99428.88;2075499;28;20200;-76
2022/03/05 03:56:54;;;;;;;55.55;34.10;;;;;;;-0.14;100.00;99426.94;2084396;28;20188;-76
2022/03/05 03:57:56;;;;;;;53.83;34.55;;;;;;;-0.15;100.00;99422.69;2083999;28;20682;-77
2022/03/05 03:59:01;;;;;;;54.75;35.30;;;;;;;-0.15;100.00;99429.78;2084280;28;20557;-76
2022/03/05 04:00:07;;;;;;;53.05;36.40;;;;;;;-0.18;100.00;99428.38;2081977;28;20306;-77
2022/03/05 04:01:15;;;;;;;63.38;36.08;;;;;;;-0.19;100.00;99429.38;2081904;28;20205;-77
2022/03/05 04:02:19;;;;;;;50.05;33.80;;;;;;;-0.19;100.00;99436.44;2082140;28;20545;-77
2022/03/05 04:03:20;;;;;;;53.63;33.42;;;;;;;-0.19;100.00;99434.63;2082184;28;20234;-78
2022/03/05 04:04:22;;;;;;;56.23;34.23;;;;;;;-0.11;100.00;99431.72;2089745;28;20195;-77
2022/03/05 04:05:24;;;;;;;55.97;34.08;;;;;;;-0.17;100.00;99424.75;2089674;28;20425;-77
2022/03/05 04:08:41;;;;;;;55.55;34.00;;;;;;;-0.07;100.00;99432.91;2081838;28;20284;-77
2022/03/05 04:09:10;;;;;;;54.83;33.58;;;;;;;0.04;100.00;99427.97;2064994;28;20224;-78
2022/03/05 04:10:13;;;;;;;51.90;34.67;;;;;;;0.13;100.00;99431.91;2075204;28;20549;-78
2022/03/05 04:11:19;;;;;;;58.40;34.13;;;;;;;0.19;100.00;99428.41;2073338;28;20283;-77
2022/03/05 04:12:24;;;;;;;53.80;33.85;;;;;;;0.11;100.00;99431.31;2074344;28;20200;-77
2022/03/05 04:13:25;;;;;;;52.78;32.35;;;;;;;0.03;100.00;99423.75;2081852;28;20187;-77
2022/03/05 04:14:30;;;;;;;46.85;32.72;;;;;;;0.18;100.00;99429.44;2083054;28;20673;-77
2022/03/05 04:15:33;;;;;;;46.80;31.38;;;;;;;0.18;100.00;99424.97;2083148;28;20333;-77
2022/03/05 04:16:36;;;;;;;49.40;32.42;;;;;;;0.17;100.00;99427.81;2083310;28;20192;-77
2022/03/05 04:17:38;;;;;;;48.20;32.88;;;;;;;0.08;100.00;99434.34;2084990;28;20643;-77
2022/03/05 04:18:41;;;;;;;44.03;31.38;;;;;;;0.05;100.00;99424.31;2083986;28;20195;-77
2022/03/05 04:19:43;;;;;;;50.55;33.28;;;;;;;0.04;100.00;99427.97;2076536;28;20220;-76
2022/03/05 04:20:47;;;;;;;50.28;33.03;;;;;;;0.01;100.00;99429.22;2075377;28;20279;-76
2022/03/05 04:21:52;;;;;;;45.72;32.05;;;;;;;0.05;100.00;99432.19;2074998;28;20275;-76
2022/03/05 04:22:57;;;;;;;46.63;32.30;;;;;;;0.01;100.00;99433.66;2077049;28;20250;-77
2022/03/05 04:23:59;;;;;;;50.38;32.70;;;;;;;-0.03;100.00;99433.25;2084874;28;20693;-75
2022/03/05 04:25:01;;;;;;;49.27;32.23;;;;;;;0.02;100.00;99433.44;2083855;28;20596;-75
2022/03/05 04:26:03;;;;;;;46.08;30.23;;;;;;;0.21;100.00;99439.47;2084470;28;20438;-75
2022/03/05 04:27:06;;;;;;;43.58;29.60;;;;;;;0.26;100.00;99431.72;2083437;28;20194;-75
2022/03/05 04:28:10;;;;;;;48.40;32.20;;;;;;;0.22;100.00;99438.44;2083427;28;20206;-75
2022/03/05 04:29:15;;;;;;;43.78;30.80;;;;;;;0.24;100.00;99431.16;2076709;28;20204;-76
2022/03/05 04:30:18;;;;;;;41.97;30.55;;;;;;;0.17;100.00;99433.06;2084629;28;20200;-75
2022/03/05 04:31:25;;;;;;;48.50;31.02;;;;;;;0.21;100.00;99435.03;2084452;28;20195;-75
2022/03/05 04:32:26;;;;;;;47.83;30.60;;;;;;;0.14;100.00;99433.50;2076912;28;20571;-76
2022/03/05 04:33:31;;;;;;;45.38;31.98;;;;;;;0.17;100.00;99438.28;2076793;28;20657;-76
2022/03/05 04:34:32;;;;;;;47.95;30.58;;;;;;;0.24;100.00;99439.03;2084480;28;20192;-76
2022/03/05 04:35:35;;;;;;;47.97;30.47;;;;;;;0.15;100.00;99440.34;2085317;28;20242;-76
2022/03/05 04:36:39;;;;;;;41.70;30.17;;;;;;;0.03;100.00;99442.09;2084655;28;20465;-76
2022/03/05 04:37:43;;;;;;;49.92;30.05;;;;;;;-0.06;100.00;99439.75;2085487;28;20215;-76
2022/03/05 04:38:46;;;;;;;43.60;29.63;;;;;;;0.05;100.00;99442.69;2084580;28;20254;-76
2022/03/05 04:39:48;;;;;;;44.15;31.02;;;;;;;0.13;100.00;99437.16;2084300;28;20207;-76
2022/03/05 04:40:55;;;;;;;49.45;31.13;;;;;;;0.15;100.00;99440.34;2085143;28;20183;-76
2022/03/05 04:41:59;;;;;;;49.20;31.17;;;;;;;0.14;100.00;99442.16;2085878;28;20180;-76
2022/03/05 04:43:04;;;;;;;50.70;31.27;;;;;;;0.12;100.00;99441.59;2085728;28;20199;-76
2022/03/05 04:44:09;;;;;;;47.05;31.50;;;;;;;0.04;100.00;99433.22;2085724;28;20215;-76
2022/03/05 04:45:16;;;;;;;44.63;30.98;;;;;;;-0.03;100.00;99436.69;2086122;28;20183;-77
2022/03/05 04:46:18;;;;;;;46.38;30.23;;;;;;;-0.01;100.00;99441.72;2085245;28;20242;-77
2022/03/05 04:47:21;;;;;;;45.20;29.80;;;;;;;-0.03;100.00;99441.94;2086499;28;20198;-76
2022/03/05 04:48:25;;;;;;;46.55;30.88;;;;;;;0.14;100.00;99450.03;2084748;28;20192;-76
2022/03/05 04:49:31;;;;;;;44.10;30.65;;;;;;;0.07;100.00;99446.69;2084753;28;20646;-76
2022/03/05 04:50:35;;;;;;;35.38;25.80;;;;;;;0.27;100.00;99449.91;2086113;28;20204;-76
2022/03/05 04:51:38;;;;;;;46.67;30.48;;;;;;;0.25;100.00;99453.75;2085631;28;20310;-77
2022/03/05 04:52:42;;;;;;;52.67;31.65;;;;;;;0.23;100.00;99447.94;2088826;28;20191;-77